ADDS METAR Data INFO
IDs: Format: Raw Decoded Include TAF

Data at: 0805 UTC 24 May 2018

KAQO 240755Z AUTO 00000KT 10SM FEW020 FEW026 21/19 A3010 RMK AO2
KAQO 240735Z AUTO 00000KT 10SM FEW028 22/19 A3010 RMK AO2
KAQO 240715Z AUTO 00000KT 10SM CLR 22/19 A3010 RMK AO2
KAQO 240655Z AUTO 00000KT 10SM CLR 22/19 A3011 RMK AO2
KAQO 240635Z AUTO 00000KT 10SM CLR 22/19 A3011 RMK AO2
KAQO 240615Z AUTO 00000KT 10SM CLR 22/19 A3011 RMK AO2
KAQO 240555Z AUTO 00000KT 10SM CLR 22/19 A3011 RMK AO2
KAQO 240535Z AUTO 00000KT 10SM CLR 22/19 A3010 RMK AO2
KAQO 240515Z AUTO 00000KT 10SM CLR 23/19 A3010 RMK AO2
KAQO 240455Z AUTO 00000KT 10SM CLR 23/19 A3010 RMK AO2
KAQO 240435Z AUTO 00000KT 10SM CLR 23/19 A3010 RMK AO2
KAQO 240415Z AUTO 00000KT 10SM CLR 23/19 A3009 RMK AO2
KAQO 240355Z AUTO 00000KT 10SM CLR 24/19 A3008 RMK AO2
KAQO 240335Z AUTO 00000KT 10SM CLR 25/19 A3008 RMK AO2
KAQO 240315Z AUTO 12005KT 10SM CLR 26/19 A3006 RMK AO2
KAQO 240255Z AUTO 00000KT 10SM CLR 26/19 A3005 RMK AO2
KAQO 240235Z AUTO 00000KT 10SM CLR 26/19 A3004 RMK AO2
KAQO 240215Z AUTO 12005KT 10SM CLR 27/19 A3004 RMK AO2
KAQO 240155Z AUTO 13006KT 10SM CLR 27/19 A3002 RMK AO2
KAQO 240135Z AUTO 13005KT 10SM CLR 28/18 A3002 RMK AO2
KAQO 240115Z AUTO 12007G15KT 10SM CLR 28/19 A3001 RMK AO2
KAQO 240055Z AUTO 12008KT 10SM CLR 28/19 A2999 RMK AO2
KAQO 240035Z AUTO 13009G16KT 10SM CLR 29/19 A2999 RMK AO2
KAQO 240015Z AUTO 13009G16KT 10SM CLR 31/18 A2998 RMK AO2
KAQO 232355Z AUTO 12006KT 10SM CLR 32/17 A2998 RMK AO2
KAQO 232335Z AUTO 14008KT 10SM CLR 33/17 A2999 RMK AO2
KAQO 232315Z AUTO 15009KT 10SM CLR 33/17 A2999 RMK AO2
KAQO 232255Z AUTO 12007G14KT 10SM FEW055 33/17 A2999 RMK AO2
KAQO 232235Z AUTO 12008KT 10SM CLR 33/17 A3000 RMK AO2
KAQO 232215Z AUTO 09005KT 10SM CLR 33/18 A3000 RMK AO2
KAQO 232155Z AUTO 14008KT 020V020 10SM FEW055 34/17 A3000 RMK AO2
KAQO 232135Z AUTO 14007KT 10SM FEW055 33/17 A3001 RMK AO2
KAQO 232115Z AUTO 09007G14KT 10SM FEW055 33/18 A3002 RMK AO2
KAQO 232055Z AUTO 13008KT 010V020 10SM CLR 33/17 A3002 RMK AO2
KAQO 232035Z AUTO 12008KT 010V020 10SM CLR 33/18 A3003 RMK AO2
KAQO 232015Z AUTO 12007KT 10SM CLR 33/17 A3003 RMK AO2
KAQO 231955Z AUTO 13003KT 10SM CLR 33/17 A3004 RMK AO2
KAQO 231935Z AUTO 12006KT 10SM CLR 32/17 A3004 RMK AO2
KAQO 231915Z AUTO 16004KT 10SM FEW110 33/17 A3005 RMK AO2
KAQO 231855Z AUTO 09006KT 10SM FEW050 FEW075 SCT110 32/17 A3006 RMK AO2
KAQO 231835Z AUTO 13005KT 10SM FEW050 FEW100 31/17 A3007 RMK AO2
KAQO 231815Z AUTO 14007KT 10SM FEW043 FEW060 SCT100 32/18 A3007 RMK AO2
KAQO 231755Z AUTO 12006KT 10SM FEW044 SCT050 SCT100 31/18 A3008 RMK AO2
KAQO 231735Z AUTO 12005KT 10SM BKN042 BKN055 29/18 A3008 RMK AO2
KAQO 231715Z AUTO 13007KT 10SM SCT042 29/18 A3009 RMK AO2
KAQO 231655Z AUTO 15006KT 10SM FEW037 FEW044 30/19 A3009 RMK AO2
KAQO 231635Z AUTO 12007KT 10SM FEW037 SCT044 29/19 A3010 RMK AO2
KAQO 231615Z AUTO 14007KT 10SM FEW033 29/18 A3010 RMK AO2
KAQO 231555Z AUTO 14009KT 020V020 10SM BKN031 BKN041 29/19 A3010 RMK AO2
KAQO 231535Z AUTO 20008KT 10SM BKN031 28/19 A3010 RMK AO2
KAQO 231515Z AUTO 14007KT 10SM BKN028 27/19 A3010 RMK AO2
KAQO 231455Z AUTO 21006KT 10SM SCT026 27/19 A3010 RMK AO2
KAQO 231435Z AUTO 18006KT 10SM FEW018 FEW026 26/19 A3010 RMK AO2
KAQO 231415Z AUTO 00000KT 10SM SCT018 SCT023 24/20 A3010 RMK AO2
KAQO 231355Z AUTO 00000KT 10SM BKN018 23/20 A3010 RMK AO2
KAQO 231335Z AUTO 19003KT 10SM CLR 24/21 A3009 RMK AO2
KAQO 231315Z AUTO 00000KT 10SM SCT016 23/21 A3009 RMK AO2
KAQO 231255Z AUTO 00000KT 10SM BKN016 22/21 A3008 RMK AO2
KAQO 231235Z AUTO 00000KT 10SM FEW016 21/20 A3008 RMK AO2
KAQO 231215Z AUTO 00000KT 9SM CLR 20/19 A3007 RMK AO2
KAQO 231155Z AUTO 00000KT 9SM CLR 20/19 A3006 RMK AO2
KAQO 231135Z AUTO 00000KT 10SM CLR 20/19 A3005 RMK AO2
KAQO 231115Z AUTO 00000KT 10SM SCT018 20/19 A3004 RMK AO2
KAQO 231055Z AUTO 00000KT 9SM BKN018 19/19 A3004 RMK AO2
KAQO 231035Z AUTO 00000KT 7SM BKN018 20/19 A3004 RMK AO2
KAQO 231015Z AUTO 00000KT 6SM BR BKN016 19/19 A3003 RMK AO2
KAQO 230955Z AUTO 00000KT 6SM BR CLR 19/18 A3003 RMK AO2
KAQO 230935Z AUTO 00000KT 10SM CLR 20/19 A3002 RMK AO2
KAQO 230915Z AUTO 00000KT 10SM FEW016 21/19 A3002 RMK AO2
KAQO 230855Z AUTO 00000KT 10SM CLR 21/19 A3002 RMK AO2
KAQO 230835Z AUTO 00000KT 10SM CLR 21/19 A3002 RMK AO2
KAQO 230815Z AUTO 00000KT 10SM CLR 21/19 A3002 RMK AO2
KAQO 230755Z AUTO 00000KT 10SM CLR 21/19 A3002 RMK AO2
KAQO 230735Z AUTO 00000KT 10SM CLR 21/19 A3002 RMK AO2
KAQO 230715Z AUTO 00000KT 10SM CLR 21/18 A3002 RMK AO2
KAQO 230655Z AUTO 00000KT 10SM CLR 21/18 A3003 RMK AO2
KAQO 230635Z AUTO 00000KT 10SM CLR 22/19 A3003 RMK AO2
KAQO 230615Z AUTO 00000KT 6SM HZ CLR 22/19 A3004 RMK AO2
KAQO 230555Z AUTO 00000KT 3SM HZ CLR 23/18 A3004 RMK AO2
KAQO 230535Z AUTO 00000KT 5SM HZ CLR 23/18 A3004 RMK AO2
KAQO 230515Z AUTO 00000KT 3SM HZ CLR 23/18 A3004 RMK AO2
KAQO 230455Z AUTO 00000KT 3SM HZ CLR 23/18 A3004 RMK AO2
KAQO 230435Z AUTO 00000KT 5SM HZ CLR 23/18 A3004 RMK AO2
KAQO 230415Z AUTO 00000KT 10SM CLR 24/18 A3003 RMK AO2
KAQO 230355Z AUTO 00000KT 10SM CLR 24/18 A3002 RMK AO2
KAQO 230330Z AUTO 11003KT 10SM CLR 25/18 A3001 RMK AO2
KAQO 230315Z AUTO 00000KT 10SM CLR 26/19 A3000 RMK AO2
KAQO 230255Z AUTO 00000KT 10SM CLR 26/18 A3000 RMK AO2
KAQO 230235Z AUTO 13006KT 10SM CLR 26/19 A2999 RMK AO2
KAQO 230215Z AUTO 13007KT 10SM CLR 27/19 A2998 RMK AO2
KAQO 230155Z AUTO 13008KT 10SM CLR 27/20 A2997 RMK AO2
KAQO 230135Z AUTO 12006KT 10SM CLR 28/19 A2996 RMK AO2
KAQO 230115Z AUTO 12008G14KT 10SM CLR 28/19 A2996 RMK AO2
KAQO 230055Z AUTO 13008G15KT 10SM CLR 29/18 A2995 RMK AO2
KAQO 230035Z AUTO 12010KT 10SM CLR 30/18 A2994 RMK AO2
KAQO 230015Z AUTO 12010KT 10SM CLR 31/18 A2994 RMK AO2
KAQO 222355Z AUTO 12007KT 10SM CLR 31/18 A2993 RMK AO2
KAQO 222335Z AUTO 12007KT 10SM CLR 32/18 A2994 RMK AO2
KAQO 222315Z AUTO 13009KT 10SM CLR 32/18 A2994 RMK AO2
KAQO 222255Z AUTO 14007KT 020V020 10SM FEW050 32/18 A2993 RMK AO2
KAQO 222235Z AUTO 12009G15KT 10SM CLR 32/18 A2994 RMK AO2
KAQO 222215Z AUTO 13010G14KT 010V020 10SM CLR 32/18 A2994 RMK AO2
KAQO 222155Z AUTO 11011G16KT 10SM FEW050 32/19 A2994 RMK AO2
KAQO 222135Z AUTO 14009G15KT 10SM FEW050 33/18 A2994 RMK AO2
KAQO 222115Z AUTO 11009G15KT 10SM SCT050 SCT080 32/18 A2995 RMK AO2
KAQO 222055Z AUTO 12006KT 10SM FEW075 32/18 A2995 RMK AO2
KAQO 222035Z AUTO 12005KT 10SM CLR 32/18 A2996 RMK AO2
KAQO 222015Z AUTO 14009KT 010V020 10SM FEW050 FEW080 FEW085 32/18 A2997 RMK AO2